Time;durP1;ratioP1;P1;durP2;ratioP2;P2;SDS_P1;SDS_P2;PMS_P1;PMS_P2;Temp;Humidity;BMP_temperature;BMP_pressure;BME280_temperature;BME280_humidity;BME280_pressure;Samples;Min_cycle;Max_cycle;Signal;HPM_P1;HPM_P2
2023/02/01 00:00:57;;;;;;;3.77;3.20;;;7.80;39.10;;;;;;10421766;28;20240;-80
2023/02/01 00:06:02;;;;;;;4.93;3.30;;;7.80;39.10;;;;;;10422074;28;20242;-81
2023/02/01 00:11:08;;;;;;;5.10;3.20;;;7.70;39.40;;;;;;10420715;28;20262;-81
2023/02/01 00:16:14;;;;;;;4.47;3.40;;;7.70;39.50;;;;;;10386320;28;20706;-81
2023/02/01 00:21:20;;;;;;;3.37;3.03;;;7.60;39.50;;;;;;10380407;28;20245;-80
2023/02/01 00:26:28;;;;;;;3.80;3.20;;;7.60;39.60;;;;;;10380266;28;20230;-80
2023/02/01 00:31:31;;;;;;;4.73;3.23;;;7.60;39.70;;;;;;10379941;28;20310;-81
2023/02/01 00:36:36;;;;;;;3.70;3.07;;;7.60;39.70;;;;;;10380150;28;20245;-80
2023/02/01 00:41:40;;;;;;;4.20;3.10;;;7.50;39.80;;;;;;10378751;28;20240;-80
2023/02/01 00:46:43;;;;;;;3.70;3.30;;;7.60;39.70;;;;;;10410221;28;20248;-80
2023/02/01 00:51:48;;;;;;;4.83;3.27;;;7.60;39.70;;;;;;10411980;28;20237;-80
2023/02/01 00:56:51;;;;;;;3.00;2.70;;;7.60;39.70;;;;;;10394003;28;20575;-80
2023/02/01 01:01:54;;;;;;;2.97;2.77;;;7.60;39.70;;;;;;10419558;28;20233;-80
2023/02/01 01:06:59;;;;;;;3.17;2.87;;;7.70;39.80;;;;;;10394797;28;20237;-81
2023/02/01 01:12:02;;;;;;;3.20;2.83;;;7.70;40.00;;;;;;10419516;28;20248;-80
2023/02/01 01:17:05;;;;;;;4.47;3.30;;;7.70;39.80;;;;;;10420788;28;20233;-80
2023/02/01 01:22:10;;;;;;;4.20;3.13;;;7.70;39.90;;;;;;10411880;23;20288;-74
2023/02/01 01:27:13;;;;;;;3.80;3.33;;;7.70;40.00;;;;;;10396984;28;20244;-74
2023/02/01 01:32:17;;;;;;;3.43;3.03;;;7.70;39.90;;;;;;10393390;28;20222;-74
2023/02/01 01:37:21;;;;;;;2.97;2.70;;;7.70;40.00;;;;;;10399308;28;20622;-74
2023/02/01 01:42:24;;;;;;;3.53;3.23;;;7.70;40.20;;;;;;10390016;28;20230;-74
2023/02/01 01:47:31;;;;;;;5.00;3.40;;;7.60;40.20;;;;;;10387755;28;20257;-74
2023/02/01 01:52:37;;;;;;;3.80;3.43;;;7.60;40.20;;;;;;10392641;28;20701;-74
2023/02/01 01:57:45;;;;;;;3.60;3.30;;;7.60;40.40;;;;;;10388235;28;20240;-74
2023/02/01 02:02:53;;;;;;;3.60;3.30;;;7.60;40.40;;;;;;10396821;28;20304;-74
2023/02/01 02:08:01;;;;;;;3.73;3.40;;;7.60;40.30;;;;;;10393607;28;20604;-74
2023/02/01 02:13:04;;;;;;;4.30;3.43;;;7.60;40.40;;;;;;10387711;28;20233;-74
2023/02/01 02:18:13;;;;;;;4.20;3.80;;;7.60;40.30;;;;;;10383735;28;20229;-74
2023/02/01 02:23:55;;;;;;;3.93;3.63;;;7.50;40.40;;;;;;10393107;28;20239;-74
2023/02/01 02:29:44;;;;;;;3.97;3.57;;;7.50;40.50;;;;;;10360259;28;20228;-74
2023/02/01 02:34:54;;;;;;;3.80;3.50;;;7.50;40.60;;;;;;10374793;28;20233;-74
2023/02/01 02:40:08;;;;;;;3.77;3.47;;;7.50;40.60;;;;;;10386052;28;20227;-74
2023/02/01 03:06:53;;;;;;;4.00;3.60;;;7.50;40.20;;;;;;10393354;28;20233;-74
2023/02/01 03:17:40;;;;;;;3.50;3.20;;;7.50;40.50;;;;;;10366297;28;20517;-74
2023/02/01 05:19:13;;;;;;;3.47;3.17;;;7.40;40.90;;;;;;10374446;28;20398;-73
2023/02/01 05:24:19;;;;;;;3.90;3.43;;;7.40;40.90;;;;;;10383171;28;20233;-72
2023/02/01 05:29:23;;;;;;;3.50;3.20;;;7.40;40.80;;;;;;10396869;28;20229;-73
2023/02/01 05:34:27;;;;;;;3.70;3.40;;;7.40;40.90;;;;;;10397180;28;20230;-73
2023/02/01 05:39:30;;;;;;;3.30;3.00;;;7.40;40.90;;;;;;10395056;28;20229;-73
2023/02/01 05:44:33;;;;;;;3.70;3.10;;;7.50;40.90;;;;;;10399878;28;20280;-73
2023/02/01 05:49:38;;;;;;;2.90;2.70;;;7.50;40.90;;;;;;10399499;28;20275;-73
2023/02/01 05:54:41;;;;;;;3.07;2.77;;;7.50;40.90;;;;;;10407345;28;20705;-73
2023/02/01 05:59:45;;;;;;;2.83;2.63;;;7.60;41.00;;;;;;10412733;28;20229;-73
2023/02/01 06:04:49;;;;;;;2.83;2.57;;;7.60;41.00;;;;;;10410614;28;20245;-73
2023/02/01 06:09:52;;;;;;;2.70;2.50;;;7.60;41.10;;;;;;10406715;28;20333;-72
2023/02/01 06:14:56;;;;;;;2.73;2.53;;;7.60;41.80;;;;;;10410899;28;20735;-73
2023/02/01 06:20:00;;;;;;;2.53;2.40;;;7.60;41.10;;;;;;10412562;28;20229;-73
2023/02/01 06:25:03;;;;;;;3.13;2.63;;;7.60;41.00;;;;;;10389608;28;20226;-74
2023/02/01 06:30:08;;;;;;;2.97;2.67;;;7.70;41.00;;;;;;10401358;28;20225;-74
2023/02/01 06:35:15;;;;;;;2.90;2.70;;;7.70;41.00;;;;;;10407834;28;20640;-74
2023/02/01 06:40:19;;;;;;;2.40;2.20;;;7.70;41.00;;;;;;10400111;28;20236;-72
2023/02/01 06:45:22;;;;;;;3.40;2.83;;;7.70;40.80;;;;;;10373250;28;20245;-74
2023/02/01 06:50:27;;;;;;;3.07;2.83;;;7.80;41.00;;;;;;10376642;28;20242;-73
2023/02/01 06:55:30;;;;;;;2.90;2.67;;;7.80;41.00;;;;;;10395021;28;20229;-74
2023/02/01 07:00:33;;;;;;;3.10;2.90;;;7.80;41.60;;;;;;10400231;28;20235;-74
2023/02/01 07:05:38;;;;;;;2.97;2.67;;;7.80;40.90;;;;;;10387629;28;20237;-73
2023/02/01 07:10:41;;;;;;;3.23;2.43;;;7.80;40.90;;;;;;10402988;28;20244;-72
2023/02/01 07:15:46;;;;;;;2.80;2.47;;;7.80;40.90;;;;;;10402434;28;20233;-73
2023/02/01 07:20:52;;;;;;;2.47;2.27;;;7.80;40.90;;;;;;10401134;28;20583;-73
2023/02/01 07:25:55;;;;;;;3.00;2.50;;;7.90;41.10;;;;;;10398779;28;20589;-72
2023/02/01 07:31:04;;;;;;;3.20;2.90;;;7.90;41.10;;;;;;10396759;28;20230;-75
2023/02/01 07:36:12;;;;;;;3.47;3.17;;;7.90;41.00;;;;;;10407312;28;20221;-75
2023/02/01 07:41:16;;;;;;;3.43;2.53;;;8.00;40.90;;;;;;10405605;28;20584;-74
2023/02/01 07:46:19;;;;;;;2.73;2.50;;;8.00;40.90;;;;;;10401817;28;20240;-75
2023/02/01 07:51:24;;;;;;;3.00;2.70;;;8.00;40.80;;;;;;10412145;28;20244;-74
2023/02/01 07:56:27;;;;;;;2.87;2.67;;;8.00;40.70;;;;;;10408098;28;20233;-73
2023/02/01 08:01:30;;;;;;;2.63;2.43;;;8.10;40.70;;;;;;10404351;28;20686;-73
2023/02/01 08:06:35;;;;;;;3.00;2.73;;;8.10;40.70;;;;;;10404685;28;20317;-76
2023/02/01 08:11:38;;;;;;;2.90;2.70;;;8.10;40.60;;;;;;10410992;28;20233;-73
2023/02/01 08:16:41;;;;;;;3.00;2.63;;;8.10;40.70;;;;;;10398172;28;20227;-74
2023/02/01 08:21:48;;;;;;;2.90;2.70;;;8.10;40.70;;;;;;10403739;28;20237;-74
2023/02/01 08:26:51;;;;;;;3.53;3.20;;;8.10;40.70;;;;;;10404348;28;20717;-76
2023/02/01 08:31:55;;;;;;;3.40;3.10;;;8.20;40.80;;;;;;10405134;28;20727;-75
2023/02/01 08:36:59;;;;;;;4.30;3.63;;;8.20;40.80;;;;;;10405437;28;20866;-75
2023/02/01 08:47:23;;;;;;;4.37;3.47;;;8.20;40.80;;;;;;10413338;28;20225;-76
2023/02/01 08:52:28;;;;;;;3.70;3.40;;;8.20;40.70;;;;;;10413399;28;20576;-75
2023/02/01 08:57:31;;;;;;;2.87;2.53;;;8.20;40.70;;;;;;10410611;28;20233;-75
2023/02/01 09:02:34;;;;;;;2.70;2.50;;;8.30;40.80;;;;;;10417696;28;20233;-75
2023/02/01 09:07:39;;;;;;;4.17;3.77;;;8.30;41.10;;;;;;10409328;28;20225;-75
2023/02/01 09:12:42;;;;;;;3.00;2.80;;;8.30;41.10;;;;;;10406455;28;20943;-75
2023/02/01 09:17:45;;;;;;;2.80;2.60;;;8.30;41.10;;;;;;10413099;28;20709;-75
2023/02/01 09:22:50;;;;;;;3.03;2.47;;;8.20;41.10;;;;;;10419266;28;20726;-75
2023/02/01 09:27:53;;;;;;;3.30;3.00;;;8.20;41.10;;;;;;10411584;28;20696;-75
2023/02/01 09:32:56;;;;;;;2.83;2.60;;;8.20;41.10;;;;;;10410833;28;20717;-75
2023/02/01 09:38:00;;;;;;;2.43;2.23;;;8.20;41.20;;;;;;10408269;28;20221;-75
2023/02/01 09:43:29;;;;;;;2.33;2.13;;;8.30;41.20;;;;;;10411753;28;20229;-75
2023/02/01 09:48:36;;;;;;;2.67;2.47;;;8.30;41.30;;;;;;10408490;28;20237;-74
2023/02/01 09:53:43;;;;;;;2.50;2.30;;;8.30;41.40;;;;;;10408032;28;20626;-75
2023/02/01 09:58:52;;;;;;;2.20;2.00;;;8.30;41.50;;;;;;10415821;28;20256;-75
2023/02/01 10:04:02;;;;;;;2.40;2.20;;;8.30;41.50;;;;;;10416371;28;20232;-75
2023/02/01 10:09:16;;;;;;;2.20;2.00;;;8.20;41.60;;;;;;10416545;28;22251;-75
2023/02/01 10:14:37;;;;;;;2.30;2.10;;;8.20;41.70;;;;;;10405220;28;20222;-75
2023/02/01 10:19:47;;;;;;;4.13;3.10;;;8.20;41.70;;;;;;10413756;28;20724;-75
2023/02/01 10:24:57;;;;;;;4.13;2.50;;;8.20;41.80;;;;;;10418579;28;20221;-75
2023/02/01 10:30:05;;;;;;;3.43;3.13;;;8.20;41.80;;;;;;10404555;28;20236;-75
2023/02/01 10:35:15;;;;;;;2.77;2.50;;;8.20;41.80;;;;;;10420304;28;20678;-75
2023/02/01 10:40:23;;;;;;;2.83;2.63;;;8.20;42.10;;;;;;10405581;28;20237;-74
2023/02/01 10:45:29;;;;;;;2.60;2.40;;;8.20;42.00;;;;;;10411496;28;20279;-74
2023/02/01 10:50:39;;;;;;;2.50;2.30;;;8.10;41.90;;;;;;10406534;28;20868;-74
2023/02/01 10:55:49;;;;;;;2.97;2.67;;;8.10;42.00;;;;;;10404809;28;20245;-74
2023/02/01 11:00:56;;;;;;;3.80;2.10;;;8.10;42.40;;;;;;10412212;28;20236;-74
2023/02/01 11:06:00;;;;;;;3.20;2.80;;;8.10;42.00;;;;;;10411735;28;20224;-75
2023/02/01 11:11:05;;;;;;;3.47;2.90;;;8.10;41.80;;;;;;10405042;28;20228;-74
2023/02/01 11:16:14;;;;;;;3.97;2.93;;;8.20;42.00;;;;;;10409608;28;20224;-74
2023/02/01 11:21:17;;;;;;;6.20;3.70;;;8.20;41.70;;;;;;10406601;28;20230;-74
2023/02/01 11:26:26;;;;;;;3.40;3.03;;;8.30;41.60;;;;;;10403739;28;20230;-75
2023/02/01 11:31:30;;;;;;;3.23;2.50;;;8.30;41.50;;;;;;10408661;28;20229;-75
2023/02/01 11:36:36;;;;;;;3.77;2.50;;;8.40;41.60;;;;;;10405599;28;20348;-75
2023/02/01 11:41:55;;;;;;;3.07;2.30;;;8.40;41.50;;;;;;10404807;28;20237;-76
2023/02/01 11:47:21;;;;;;;3.23;2.40;;;8.50;41.50;;;;;;10397524;28;20259;-77
2023/02/01 11:52:48;;;;;;;3.10;2.30;;;8.50;41.30;;;;;;10398451;28;20689;-78
2023/02/01 11:58:04;;;;;;;3.03;2.10;;;8.60;41.70;;;;;;10401092;28;20328;-80
2023/02/01 12:03:40;;;;;;;3.67;2.40;;;8.70;41.70;;;;;;10403880;28;20930;-79
2023/02/01 12:09:04;;;;;;;4.03;2.33;;;8.60;41.70;;;;;;10405960;28;20273;-79
2023/02/01 12:14:22;;;;;;;2.80;2.43;;;8.60;41.70;;;;;;10408622;28;20897;-79
2023/02/01 12:19:39;;;;;;;2.50;2.30;;;8.60;42.30;;;;;;10412508;28;20283;-79
2023/02/01 12:25:06;;;;;;;4.60;2.30;;;8.50;41.50;;;;;;10409736;28;20256;-79
2023/02/01 12:30:35;;;;;;;3.87;2.73;;;8.50;41.50;;;;;;10390987;28;20221;-77
2023/02/01 12:36:04;;;;;;;4.13;2.73;;;8.50;41.50;;;;;;10384163;28;20277;-77
2023/02/01 12:41:20;;;;;;;4.43;2.50;;;8.40;41.80;;;;;;10392472;28;20288;-78
2023/02/01 12:46:33;;;;;;;4.03;2.60;;;8.50;41.60;;;;;;10375818;28;20255;-77
2023/02/01 12:51:42;;;;;;;3.50;3.20;;;8.50;41.60;;;;;;10395183;28;20252;-76
2023/02/01 12:56:49;;;;;;;3.60;2.27;;;8.60;41.30;;;;;;10400492;28;20234;-76
2023/02/01 13:01:58;;;;;;;2.80;2.23;;;8.60;41.10;;;;;;10397030;28;20230;-76
2023/02/01 13:07:10;;;;;;;4.57;3.33;;;8.60;41.20;;;;;;10396234;28;20225;-76
2023/02/01 13:12:17;;;;;;;3.83;3.03;;;8.70;40.90;;;;;;10393300;28;20638;-77
2023/02/01 13:17:27;;;;;;;4.00;2.60;;;8.70;40.90;;;;;;10401498;28;20233;-74
2023/02/01 13:22:33;;;;;;;6.30;3.23;;;8.70;40.20;;;;;;10390570;28;20297;-81
2023/02/01 13:27:38;;;;;;;6.80;3.20;;;8.80;40.20;;;;;;10390758;28;20232;-76
2023/02/01 13:33:15;;;;;;;4.10;2.50;;;8.80;40.20;;;;;;10390460;28;20705;-78
2023/02/01 13:39:15;;;;;;;4.83;2.93;;;8.80;39.90;;;;;;10389307;28;20320;-77
2023/02/01 13:44:25;;;;;;;5.00;2.67;;;8.70;39.80;;;;;;10389554;28;20219;-78
2023/02/01 13:49:34;;;;;;;3.80;2.33;;;8.70;39.80;;;;;;10398589;28;20230;-78
2023/02/01 13:54:40;;;;;;;5.37;2.70;;;8.70;40.00;;;;;;10392543;28;20289;-78
2023/02/01 14:00:09;;;;;;;4.43;3.23;;;8.70;39.80;;;;;;10382371;28;20237;-76
2023/02/01 14:05:52;;;;;;;5.13;3.10;;;8.70;39.80;;;;;;10388735;28;20256;-77
2023/02/01 14:10:58;;;;;;;5.03;3.50;;;8.70;39.80;;;;;;10386238;28;20220;-77
2023/02/01 14:16:16;;;;;;;6.67;3.50;;;8.70;39.80;;;;;;10387831;28;20760;-77
2023/02/01 14:21:26;;;;;;;4.07;3.00;;;8.70;39.80;;;;;;10431631;28;20224;-78
2023/02/01 14:26:45;;;;;;;8.00;3.00;;;8.80;39.90;;;;;;10429664;28;20268;-78
2023/02/01 14:32:05;;;;;;;4.63;2.87;;;8.80;39.60;;;;;;10429083;28;20276;-77
2023/02/01 14:37:24;;;;;;;6.17;3.20;;;8.80;39.50;;;;;;10405827;28;20231;-77
2023/02/01 14:42:30;;;;;;;4.77;2.83;;;8.80;39.70;;;;;;10405457;28;20229;-77
2023/02/01 14:47:34;;;;;;;4.80;2.90;;;8.80;39.90;;;;;;10450560;28;20228;-78
2023/02/01 14:52:43;;;;;;;4.43;2.50;;;8.80;39.90;;;;;;10430756;28;20243;-78
2023/02/01 14:57:50;;;;;;;4.43;2.60;;;8.80;39.30;;;;;;10415343;28;20233;-78
2023/02/01 15:02:55;;;;;;;5.13;2.70;;;8.80;39.40;;;;;;10431685;28;20239;-78
2023/02/01 15:08:06;;;;;;;6.27;2.97;;;8.90;39.70;;;;;;10440507;28;20229;-78
2023/02/01 15:13:20;;;;;;;4.23;2.50;;;8.80;39.00;;;;;;10436679;28;20221;-79
2023/02/01 15:18:24;;;;;;;5.50;2.40;;;8.90;39.00;;;;;;10441099;28;20767;-78
2023/02/01 15:23:29;;;;;;;4.57;2.47;;;8.90;39.70;;;;;;10439442;28;20233;-78
2023/02/01 15:28:32;;;;;;;5.50;2.53;;;8.80;39.40;;;;;;10433949;28;20233;-78
2023/02/01 15:33:35;;;;;;;4.83;2.17;;;8.80;39.60;;;;;;10439247;28;20237;-78
2023/02/01 15:38:42;;;;;;;4.10;1.73;;;8.90;39.50;;;;;;10437805;28;20236;-78
2023/02/01 15:43:50;;;;;;;3.70;2.10;;;8.90;39.00;;;;;;10435083;28;20235;-78
2023/02/01 15:48:55;;;;;;;4.60;2.07;;;8.90;39.00;;;;;;10439439;28;20359;-79
2023/02/01 15:54:03;;;;;;;5.40;2.10;;;8.90;39.20;;;;;;10435136;28;20224;-78
2023/02/01 15:59:14;;;;;;;6.47;2.40;;;8.80;38.80;;;;;;10437001;28;20221;-78
2023/02/01 16:04:19;;;;;;;4.07;1.90;;;8.80;38.90;;;;;;10431565;28;20221;-78
2023/02/01 16:09:27;;;;;;;10.07;4.13;;;8.80;39.60;;;;;;10434495;28;20237;-78
2023/02/01 16:14:31;;;;;;;7.03;3.10;;;8.80;38.70;;;;;;10439997;28;20228;-78
2023/02/01 16:19:34;;;;;;;4.33;2.40;;;8.80;38.80;;;;;;10442147;28;20232;-78
2023/02/01 16:24:39;;;;;;;3.40;2.00;;;8.70;38.90;;;;;;10440596;28;20221;-78
2023/02/01 16:29:42;;;;;;;5.93;2.50;;;8.70;38.80;;;;;;10439542;28;20677;-77
2023/02/01 16:34:46;;;;;;;4.33;2.03;;;8.70;39.00;;;;;;10442362;28;20229;-77
2023/02/01 16:39:50;;;;;;;4.53;2.10;;;8.70;38.80;;;;;;10449085;28;20225;-78
2023/02/01 16:44:53;;;;;;;5.30;2.13;;;8.70;38.50;;;;;;10449062;28;20225;-78
2023/02/01 16:49:57;;;;;;;6.03;2.00;;;8.70;38.90;;;;;;10447224;28;20232;-77
2023/02/01 16:55:02;;;;;;;3.37;1.80;;;8.60;38.70;;;;;;10449585;28;20217;-77
2023/02/01 17:00:06;;;;;;;4.13;2.03;;;8.70;38.80;;;;;;10447915;28;20225;-77
2023/02/01 17:05:26;;;;;;;4.10;1.93;;;8.70;38.70;;;;;;10447908;28;20221;-78
2023/02/01 17:10:31;;;;;;;5.23;2.00;;;8.70;38.60;;;;;;10444340;28;20237;-78
2023/02/01 17:15:36;;;;;;;6.53;1.80;;;8.60;38.40;;;;;;10446234;28;20300;-78
2023/02/01 17:20:40;;;;;;;5.33;2.33;;;8.70;38.50;;;;;;10448285;28;20237;-77
2023/02/01 17:25:47;;;;;;;7.63;2.13;;;8.70;38.60;;;;;;10448034;28;20316;-77
2023/02/01 17:30:50;;;;;;;5.77;2.30;;;8.70;38.40;;;;;;10448507;28;20225;-77
2023/02/01 17:35:55;;;;;;;5.40;2.00;;;8.70;38.50;;;;;;10446927;28;20225;-77
2023/02/01 17:41:00;;;;;;;5.63;2.53;;;8.60;38.30;;;;;;10448148;28;20252;-78
2023/02/01 17:46:06;;;;;;;3.13;1.93;;;8.70;38.40;;;;;;10447818;28;20221;-77
2023/02/01 17:51:16;;;;;;;5.23;2.07;;;8.70;38.20;;;;;;10447476;28;20229;-77
2023/02/01 17:56:24;;;;;;;4.87;2.20;;;8.70;38.00;;;;;;10434804;28;20221;-78
2023/02/01 18:01:29;;;;;;;5.27;2.70;;;8.70;38.20;;;;;;10448600;28;20224;-77
2023/02/01 18:06:34;;;;;;;5.10;2.30;;;8.70;38.30;;;;;;10445613;28;20255;-77
2023/02/01 18:11:41;;;;;;;4.43;2.30;;;8.70;38.10;;;;;;10447970;28;20260;-78
2023/02/01 18:16:45;;;;;;;8.43;3.00;;;8.70;38.20;;;;;;10447086;28;20743;-78
2023/02/01 18:21:48;;;;;;;6.83;3.00;;;8.70;38.30;;;;;;10445907;28;20225;-78
2023/02/01 18:26:52;;;;;;;6.23;2.47;;;8.70;38.40;;;;;;10447381;28;20221;-78
2023/02/01 18:31:55;;;;;;;6.30;2.50;;;8.70;38.20;;;;;;10445650;28;20217;-78
2023/02/01 18:36:59;;;;;;;5.10;2.00;;;8.70;38.40;;;;;;10443377;28;20252;-78
2023/02/01 18:42:04;;;;;;;4.30;2.17;;;8.70;38.30;;;;;;10443900;28;20251;-78
2023/02/01 18:47:07;;;;;;;4.47;2.23;;;8.70;38.10;;;;;;10445929;28;20221;-77
2023/02/01 18:52:12;;;;;;;5.83;2.50;;;8.80;38.10;;;;;;10446255;28;20249;-78
2023/02/01 18:57:16;;;;;;;5.80;2.40;;;8.70;37.90;;;;;;10444696;28;20221;-78
2023/02/01 19:02:19;;;;;;;3.50;2.00;;;8.70;38.00;;;;;;10443246;28;20279;-78
2023/02/01 19:07:24;;;;;;;5.53;2.33;;;8.70;38.10;;;;;;10443645;28;20248;-79
2023/02/01 19:12:28;;;;;;;3.80;1.97;;;8.70;38.10;;;;;;10433772;28;20225;-77
2023/02/01 19:17:32;;;;;;;4.63;1.90;;;8.80;37.90;;;;;;10437571;28;20221;-78
2023/02/01 19:22:35;;;;;;;5.83;2.23;;;8.80;38.00;;;;;;10438534;28;20259;-77
2023/02/01 19:27:39;;;;;;;7.53;2.40;;;8.80;37.90;;;;;;10432111;28;20627;-77
2023/02/01 19:32:43;;;;;;;5.13;2.03;;;8.80;37.90;;;;;;10434230;28;20712;-79
2023/02/01 19:37:46;;;;;;;4.90;2.23;;;8.80;37.90;;;;;;10438535;28;20229;-78
2023/02/01 19:42:51;;;;;;;6.20;2.43;;;8.80;37.50;;;;;;10441311;28;20224;-78
2023/02/01 19:47:54;;;;;;;6.43;2.30;;;8.90;37.30;;;;;;10442122;28;20240;-78
2023/02/01 19:52:58;;;;;;;5.07;2.20;;;8.80;37.40;;;;;;10438572;28;20577;-77
2023/02/01 19:58:04;;;;;;;4.17;2.10;;;8.80;37.60;;;;;;10442380;28;20231;-78
2023/02/01 20:03:07;;;;;;;8.53;2.30;;;8.80;37.50;;;;;;10438037;28;20244;-77
2023/02/01 20:08:10;;;;;;;4.40;2.00;;;8.80;37.20;;;;;;10442969;28;20249;-78
2023/02/01 20:13:15;;;;;;;4.77;2.00;;;8.80;37.70;;;;;;10446334;28;20229;-77
2023/02/01 20:18:18;;;;;;;7.07;2.00;;;8.90;37.40;;;;;;10448274;28;20225;-78
2023/02/01 20:23:21;;;;;;;4.53;2.00;;;8.90;37.40;;;;;;10447511;28;20712;-78
2023/02/01 20:28:26;;;;;;;6.73;2.23;;;8.90;37.40;;;;;;10450221;28;20228;-78
2023/02/01 20:33:30;;;;;;;5.33;1.97;;;8.90;37.30;;;;;;10443885;28;20263;-79
2023/02/01 20:38:33;;;;;;;6.57;2.33;;;8.90;37.40;;;;;;10446527;28;20227;-77
2023/02/01 20:43:37;;;;;;;6.47;2.57;;;8.90;37.40;;;;;;10449766;28;20232;-78
2023/02/01 20:48:42;;;;;;;4.67;2.30;;;8.80;37.40;;;;;;10445276;28;20650;-78
2023/02/01 20:53:47;;;;;;;3.87;2.23;;;8.80;37.30;;;;;;10439211;28;20237;-76
2023/02/01 20:58:51;;;;;;;5.70;2.30;;;8.80;37.40;;;;;;10449585;28;20221;-75
2023/02/01 21:03:55;;;;;;;5.07;2.30;;;8.80;37.40;;;;;;10444652;28;20224;-76
2023/02/01 21:08:58;;;;;;;5.30;2.27;;;8.70;37.20;;;;;;10441774;28;20236;-77
2023/02/01 21:14:04;;;;;;;4.17;2.27;;;8.80;37.60;;;;;;10454586;28;20228;-76
2023/02/01 21:19:08;;;;;;;4.67;2.40;;;8.70;37.30;;;;;;10448178;28;20216;-76
2023/02/01 21:24:11;;;;;;;5.53;2.30;;;8.70;37.40;;;;;;10448092;28;20239;-76
2023/02/01 21:29:16;;;;;;;5.70;2.37;;;8.70;37.40;;;;;;10444834;28;20221;-76
2023/02/01 21:34:20;;;;;;;4.80;1.87;;;8.70;37.20;;;;;;10448834;28;20221;-76
2023/02/01 21:39:23;;;;;;;4.27;1.90;;;8.70;37.50;;;;;;10449198;28;20236;-75
2023/02/01 21:44:27;;;;;;;4.67;2.27;;;8.70;37.60;;;;;;10444130;28;20701;-81
2023/02/01 21:49:30;;;;;;;9.30;2.23;;;8.70;37.30;;;;;;10449982;28;20240;-80
2023/02/01 21:54:34;;;;;;;7.73;1.80;;;8.80;37.40;;;;;;10446972;28;20225;-80
2023/02/01 21:59:39;;;;;;;5.80;2.10;;;8.80;37.30;;;;;;10445178;28;20582;-80
2023/02/01 22:04:42;;;;;;;5.43;2.20;;;8.80;37.20;;;;;;10447159;28;20232;-81
2023/02/01 22:09:45;;;;;;;6.10;2.50;;;8.80;37.20;;;;;;10449237;28;20576;-80
2023/02/01 22:14:50;;;;;;;5.90;2.53;;;8.80;37.30;;;;;;10443219;28;20310;-80
2023/02/01 22:19:53;;;;;;;5.97;2.17;;;8.80;37.30;;;;;;10443524;28;20256;-80
2023/02/01 22:24:57;;;;;;;5.07;1.90;;;8.80;37.50;;;;;;10441700;28;20229;-80
2023/02/01 22:30:01;;;;;;;5.47;2.17;;;8.80;37.60;;;;;;10432913;28;20319;-80
2023/02/01 22:35:05;;;;;;;6.33;2.47;;;8.70;37.30;;;;;;10436262;28;20232;-80
2023/02/01 22:40:10;;;;;;;4.00;1.83;;;8.80;37.50;;;;;;10437060;28;20221;-80
2023/02/01 22:45:15;;;;;;;3.57;2.03;;;8.80;37.60;;;;;;10438459;28;20221;-80
2023/02/01 22:50:18;;;;;;;4.10;2.13;;;8.70;37.50;;;;;;10447225;28;20705;-80
2023/02/01 22:55:22;;;;;;;5.77;2.30;;;8.70;37.60;;;;;;10448921;28;20233;-80
2023/02/01 23:00:27;;;;;;;6.97;1.93;;;8.70;37.80;;;;;;10447180;28;20319;-80
2023/02/01 23:05:30;;;;;;;6.57;2.60;;;8.70;37.80;;;;;;10450046;28;20229;-80
2023/02/01 23:10:34;;;;;;;5.20;2.00;;;8.70;37.90;;;;;;10448352;28;20233;-80
2023/02/01 23:15:40;;;;;;;4.63;2.00;;;8.70;38.00;;;;;;10443043;28;20232;-80
2023/02/01 23:20:43;;;;;;;5.63;2.00;;;8.70;38.00;;;;;;10448195;28;20609;-80
2023/02/01 23:25:50;;;;;;;7.23;2.13;;;8.60;38.00;;;;;;10445074;28;20708;-80
2023/02/01 23:30:55;;;;;;;7.60;2.10;;;8.50;38.30;;;;;;10451440;28;20220;-80
2023/02/01 23:36:00;;;;;;;4.97;2.00;;;8.50;38.50;;;;;;10448084;28;20724;-80
2023/02/01 23:41:06;;;;;;;4.23;2.17;;;8.50;38.60;;;;;;10434562;28;20792;-80
2023/02/01 23:46:11;;;;;;;5.63;1.97;;;8.50;38.70;;;;;;10446356;28;20216;-80
2023/02/01 23:51:15;;;;;;;5.40;2.00;;;8.40;38.80;;;;;;10450713;28;20224;-79
2023/02/01 23:56:24;;;;;;;4.77;2.03;;;8.30;38.70;;;;;;10452108;28;20224;-80
